createdAt,value
2019-02-16T00:02:23.346Z,3.40
2019-02-16T00:04:52.348Z,3.30
2019-02-16T00:07:20.752Z,3.30
2019-02-16T00:09:49.027Z,3.30
2019-02-16T00:12:17.302Z,3.30
2019-02-16T00:14:45.566Z,3.30
2019-02-16T00:17:13.830Z,3.40
2019-02-16T00:19:42.146Z,3.40
2019-02-16T00:22:10.403Z,3.50
2019-02-16T00:24:45.147Z,3.40
2019-02-16T00:27:13.610Z,3.30
2019-02-16T00:29:45.364Z,3.40
2019-02-16T00:32:13.928Z,3.20
2019-02-16T00:34:43.867Z,3.20
2019-02-16T00:37:15.282Z,3.00
2019-02-16T00:39:44.006Z,3.00
2019-02-16T00:42:15.644Z,2.90
2019-02-16T00:44:44.200Z,2.80
2019-02-16T00:47:12.479Z,2.70
2019-02-16T00:49:40.765Z,2.60
2019-02-16T00:52:09.026Z,2.50
2019-02-16T00:54:37.253Z,2.50
2019-02-16T00:57:05.627Z,2.50
2019-02-16T00:59:33.844Z,2.50
2019-02-16T01:02:02.083Z,2.50
2019-02-16T01:04:30.350Z,2.50
2019-02-16T01:06:58.622Z,2.40
2019-02-16T01:09:26.889Z,2.40
2019-02-16T01:11:55.124Z,2.40
2019-02-16T01:14:23.407Z,2.30
2019-02-16T01:16:51.614Z,2.30
2019-02-16T01:19:19.898Z,2.30
2019-02-16T01:21:48.141Z,2.20
2019-02-16T01:24:16.410Z,2.20
2019-02-16T01:26:44.707Z,2.20
2019-02-16T01:29:13.003Z,2.20
2019-02-16T01:31:41.294Z,2.10
2019-02-16T01:34:09.571Z,2.10
2019-02-16T01:36:48.050Z,2.00
2019-02-16T01:39:16.389Z,2.00
2019-02-16T01:41:44.690Z,2.00
2019-02-16T01:44:12.980Z,2.00
2019-02-16T01:46:41.253Z,2.00
2019-02-16T01:49:09.519Z,2.00
2019-02-16T01:51:37.798Z,2.10
2019-02-16T01:54:06.039Z,2.10
2019-02-16T01:56:34.354Z,2.10
2019-02-16T01:59:02.602Z,2.00
2019-02-16T02:01:30.853Z,1.90
2019-02-16T02:03:59.132Z,1.80
2019-02-16T02:06:27.446Z,1.60
2019-02-16T02:08:55.698Z,1.60
2019-02-16T02:11:23.940Z,1.50
2019-02-16T02:13:54.927Z,1.40
2019-02-16T02:16:23.165Z,1.40
2019-02-16T02:18:51.461Z,1.30
2019-02-16T02:21:19.681Z,1.20
2019-02-16T02:23:47.975Z,1.10
2019-02-16T02:26:16.250Z,1.10
2019-02-16T02:28:44.523Z,1.10
2019-02-16T02:31:12.777Z,1.10
2019-02-16T02:33:41.063Z,1.10
2019-02-16T02:36:09.306Z,1.10
2019-02-16T02:38:37.619Z,1.10
2019-02-16T02:41:05.855Z,1.00
2019-02-16T02:43:34.130Z,0.90
2019-02-16T02:46:02.402Z,0.90
2019-02-16T02:48:30.677Z,0.90
2019-02-16T02:50:58.924Z,0.90
2019-02-16T02:53:31.084Z,0.90
2019-02-16T02:55:57.155Z,0.80
2019-02-16T02:58:25.382Z,0.90
2019-02-16T03:00:53.689Z,0.90
2019-02-16T03:03:21.918Z,0.90
2019-02-16T03:05:50.216Z,1.00
2019-02-16T03:08:18.529Z,1.00
2019-02-16T03:10:46.828Z,1.10
2019-02-16T03:13:15.069Z,1.20
2019-02-16T03:15:43.344Z,1.30
2019-02-16T03:18:31.038Z,1.30
2019-02-16T03:20:59.295Z,1.50
2019-02-16T03:23:27.797Z,1.60
2019-02-16T03:26:01.923Z,1.70
2019-02-16T03:28:41.905Z,1.90
2019-02-16T03:31:31.351Z,2.00
2019-02-16T03:34:18.025Z,2.10
2019-02-16T03:37:12.917Z,2.10
2019-02-16T03:39:43.023Z,2.00
2019-02-16T03:42:11.249Z,1.80
2019-02-16T03:44:39.511Z,1.70
2019-02-16T03:47:07.778Z,1.50
2019-02-16T03:49:41.810Z,1.40
2019-02-16T03:52:13.723Z,1.20
2019-02-16T03:54:40.055Z,1.10
2019-02-16T03:57:08.308Z,1.00
2019-02-16T03:59:36.575Z,1.00
2019-02-16T04:02:04.912Z,0.90
2019-02-16T04:04:33.146Z,0.80
2019-02-16T04:07:01.401Z,0.70
2019-02-16T04:09:29.655Z,0.70
2019-02-16T04:11:57.952Z,0.70
2019-02-16T04:14:26.210Z,0.60
2019-02-16T04:16:54.510Z,0.60
2019-02-16T04:19:22.794Z,0.50
2019-02-16T04:21:51.070Z,0.50
2019-02-16T04:24:19.333Z,0.40
2019-02-16T04:26:50.275Z,0.40
2019-02-16T04:29:18.527Z,0.40
2019-02-16T04:31:47.048Z,0.50
2019-02-16T04:34:15.339Z,0.60
2019-02-16T04:36:43.603Z,0.70
2019-02-16T04:39:11.865Z,0.70
2019-02-16T04:41:40.152Z,0.70
2019-02-16T04:44:08.418Z,0.70
2019-02-16T04:46:36.682Z,0.70
2019-02-16T04:49:04.966Z,0.70
2019-02-16T04:51:33.363Z,0.60
2019-02-16T04:54:01.618Z,0.60
2019-02-16T04:56:29.933Z,0.50
2019-02-16T04:58:58.183Z,0.50
2019-02-16T05:01:26.421Z,0.40
2019-02-16T05:03:54.671Z,0.40
2019-02-16T05:06:22.903Z,0.40
2019-02-16T05:08:51.224Z,0.30
2019-02-16T05:11:19.489Z,0.30
2019-02-16T05:13:47.755Z,0.30
2019-02-16T05:16:15.995Z,0.30
2019-02-16T05:18:44.246Z,0.40
2019-02-16T05:21:12.508Z,0.30
2019-02-16T05:23:40.786Z,0.20
2019-02-16T05:26:09.075Z,0.20
2019-02-16T05:28:37.322Z,0.20
2019-02-16T05:31:05.580Z,0.20
2019-02-16T05:33:33.867Z,0.20
2019-02-16T05:36:02.124Z,0.30
2019-02-16T05:38:30.388Z,0.30
2019-02-16T05:40:58.615Z,0.40
2019-02-16T05:43:26.874Z,0.30
2019-02-16T05:45:55.124Z,0.40
2019-02-16T05:48:23.399Z,0.30
2019-02-16T05:50:51.677Z,0.30
2019-02-16T05:53:20.344Z,0.30
2019-02-16T05:55:49.030Z,0.20
2019-02-16T05:58:17.390Z,0.30
2019-02-16T06:00:45.654Z,0.30
2019-02-16T06:03:13.889Z,0.30
2019-02-16T06:05:42.171Z,0.10
2019-02-16T06:08:10.417Z,0.10
2019-02-16T06:10:38.694Z,0.00
2019-02-16T06:13:06.988Z,0.00
2019-02-16T06:15:35.282Z,0.10
2019-02-16T06:18:03.544Z,0.10
2019-02-16T06:20:31.803Z,0.10
2019-02-16T06:23:04.426Z,0.20
2019-02-16T06:25:30.074Z,0.10
2019-02-16T06:27:58.323Z,0.00
2019-02-16T06:30:26.597Z,0.00
2019-02-16T06:32:54.883Z,0.00
2019-02-16T06:35:30.615Z,0.00
2019-02-16T06:37:58.906Z,-0.10
2019-02-16T06:40:27.151Z,0.00
2019-02-16T06:42:55.420Z,0.00
2019-02-16T06:45:23.675Z,0.00
2019-02-16T06:47:51.948Z,0.10
2019-02-16T06:50:20.230Z,0.10
2019-02-16T06:52:48.524Z,0.10
2019-02-16T06:55:16.763Z,0.10
2019-02-16T06:57:46.687Z,0.10
2019-02-16T07:00:16.785Z,0.10
2019-02-16T07:02:45.129Z,0.10
2019-02-16T07:05:13.504Z,0.20
2019-02-16T07:07:41.811Z,0.20
2019-02-16T07:10:10.034Z,0.20
2019-02-16T07:12:38.470Z,0.30
2019-02-16T07:15:07.367Z,0.40
2019-02-16T07:17:41.486Z,0.40
2019-02-16T07:20:09.859Z,0.40
2019-02-16T07:22:38.242Z,0.40
2019-02-16T07:25:07.396Z,0.40
2019-02-16T07:27:35.642Z,0.60
2019-02-16T07:30:05.359Z,0.70
2019-02-16T07:32:33.619Z,0.90
2019-02-16T07:35:01.858Z,1.10
2019-02-16T07:37:30.146Z,1.20
2019-02-16T07:40:17.841Z,1.30
2019-02-16T07:42:50.517Z,1.40
2019-02-16T07:45:22.541Z,1.50
2019-02-16T07:48:08.816Z,1.60
2019-02-16T07:50:41.499Z,1.60
2019-02-16T07:53:14.111Z,1.60
2019-02-16T07:55:46.620Z,1.60
2019-02-16T07:58:25.484Z,1.60
2019-02-16T08:01:10.743Z,1.60
2019-02-16T08:03:56.832Z,1.70
2019-02-16T08:06:29.646Z,1.80
2019-02-16T08:09:11.427Z,1.90
2019-02-16T08:11:57.882Z,2.10
2019-02-16T08:14:44.541Z,2.40
2019-02-16T08:17:32.643Z,2.90
2019-02-16T08:20:19.064Z,3.50
2019-02-16T08:22:48.986Z,4.00
2019-02-16T08:25:30.678Z,4.00
2019-02-16T08:28:09.592Z,4.10
2019-02-16T08:30:51.306Z,4.30
2019-02-16T08:33:23.964Z,4.20
2019-02-16T08:35:59.555Z,4.40
2019-02-16T08:38:41.124Z,4.50
2019-02-16T08:41:17.133Z,4.60
2019-02-16T08:46:28.158Z,5.10
2019-02-16T08:48:58.054Z,5.20
2019-02-16T08:51:33.439Z,5.20
2019-02-16T08:54:08.874Z,5.00
2019-02-16T08:56:38.769Z,5.00
2019-02-16T08:59:08.730Z,5.00
2019-02-16T09:01:53.937Z,4.80
2019-02-16T09:04:25.505Z,4.90
2019-02-16T09:06:57.606Z,4.90
2019-02-16T09:09:38.947Z,5.00
2019-02-16T09:12:14.590Z,5.10
2019-02-16T09:14:50.297Z,5.20
2019-02-16T09:17:31.136Z,5.10
2019-02-16T09:20:01.114Z,5.10
2019-02-16T09:22:51.343Z,5.30
2019-02-16T09:25:21.266Z,5.40
2019-02-16T09:27:51.183Z,5.40
2019-02-16T09:30:36.258Z,5.40
2019-02-16T09:33:13.174Z,5.50
2019-02-16T09:35:52.035Z,5.60
2019-02-16T09:38:33.813Z,5.80
2019-02-16T09:41:18.860Z,5.90
2019-02-16T09:44:03.853Z,6.00
2019-02-16T09:46:36.739Z,6.10
2019-02-16T09:49:07.323Z,6.30
2019-02-16T09:51:42.901Z,6.40
2019-02-16T09:54:15.612Z,6.50
2019-02-16T09:56:45.515Z,6.70
2019-02-16T09:59:15.484Z,6.80
2019-02-16T10:01:52.625Z,6.90
2019-02-16T10:04:22.516Z,7.00
2019-02-16T10:06:52.407Z,7.10
2019-02-16T10:09:31.480Z,7.10
2019-02-16T10:12:03.986Z,7.10
2019-02-16T10:14:36.771Z,7.30
2019-02-16T10:17:06.659Z,7.30
2019-02-16T10:19:42.405Z,7.40
2019-02-16T10:22:12.316Z,7.50
2019-02-16T10:24:42.232Z,7.50
2019-02-16T10:27:12.196Z,7.70
2019-02-16T10:29:58.439Z,7.80
2019-02-16T10:32:44.770Z,7.80
2019-02-16T10:35:14.681Z,8.00
2019-02-16T10:37:44.654Z,8.00
2019-02-16T10:40:14.656Z,8.10
2019-02-16T10:42:53.665Z,8.20
2019-02-16T10:45:40.201Z,8.40
2019-02-16T10:48:22.251Z,8.50
2019-02-16T10:50:52.156Z,8.60
2019-02-16T10:53:22.054Z,8.60
2019-02-16T10:56:04.264Z,8.60
2019-02-16T10:58:34.155Z,8.60
2019-02-16T11:01:19.415Z,8.70
2019-02-16T11:03:49.422Z,8.80
2019-02-16T11:06:19.322Z,8.80
2019-02-16T11:09:05.371Z,8.90
2019-02-16T11:11:35.275Z,8.80
2019-02-16T11:14:07.898Z,8.90
2019-02-16T11:16:41.197Z,9.00
2019-02-16T11:19:11.080Z,9.10
2019-02-16T11:21:44.067Z,9.10
2019-02-16T11:24:13.943Z,9.30
2019-02-16T11:26:49.629Z,9.40
2019-02-16T11:32:24.691Z,9.40
2019-02-16T11:35:10.760Z,9.60
2019-02-16T11:37:40.745Z,9.70
2019-02-16T11:40:10.906Z,9.80
2019-02-16T11:42:40.884Z,10.00
2019-02-16T11:45:18.082Z,10.10
2019-02-16T11:47:50.942Z,10.20
2019-02-16T11:50:24.137Z,10.40
2019-02-16T11:53:03.227Z,10.50
2019-02-16T11:55:36.289Z,10.50
2019-02-16T11:58:17.343Z,10.60
2019-02-16T12:00:47.271Z,10.70
2019-02-16T12:03:19.119Z,10.70
2019-02-16T12:05:49.125Z,10.80
2019-02-16T12:08:28.104Z,10.90
2019-02-16T12:11:09.883Z,10.80
2019-02-16T12:13:39.800Z,10.90
2019-02-16T12:16:15.783Z,11.00
2019-02-16T12:18:45.675Z,11.10
2019-02-16T12:21:31.720Z,11.10
2019-02-16T12:24:01.678Z,11.20
2019-02-16T12:26:47.625Z,11.30
2019-02-16T12:29:23.417Z,11.40
2019-02-16T12:31:53.360Z,11.40
2019-02-16T12:34:29.113Z,11.40
2019-02-16T12:37:14.317Z,11.40
2019-02-16T12:39:47.030Z,11.40
2019-02-16T12:42:16.940Z,11.50
2019-02-16T12:45:05.068Z,11.50
2019-02-16T12:47:47.027Z,11.60
2019-02-16T12:50:26.158Z,11.60
2019-02-16T12:52:56.085Z,11.50
2019-02-16T12:55:38.365Z,11.50
2019-02-16T12:58:11.113Z,11.50
2019-02-16T13:00:44.047Z,11.80
2019-02-16T13:03:23.002Z,11.80
2019-02-16T13:05:56.031Z,12.00
2019-02-16T13:08:25.939Z,12.00
2019-02-16T13:11:07.441Z,12.00
2019-02-16T13:13:40.100Z,12.10
2019-02-16T13:16:25.321Z,12.10
2019-02-16T13:19:07.088Z,12.30
2019-02-16T13:21:37.031Z,12.40
2019-02-16T13:24:10.014Z,12.20
2019-02-16T13:26:45.725Z,12.30
2019-02-16T13:29:21.910Z,12.40
2019-02-16T13:31:51.827Z,12.50
2019-02-16T13:34:27.423Z,12.50
2019-02-16T13:36:57.566Z,12.60
2019-02-16T13:39:27.489Z,12.60
2019-02-16T13:42:00.114Z,12.50
2019-02-16T13:44:42.327Z,12.60
2019-02-16T13:47:15.133Z,12.60
2019-02-16T13:49:45.138Z,12.60
2019-02-16T13:52:24.135Z,12.70
2019-02-16T13:54:56.788Z,12.70
2019-02-16T13:57:38.553Z,12.70
2019-02-16T14:00:12.549Z,12.70
2019-02-16T14:02:42.462Z,12.70
2019-02-16T14:05:12.379Z,12.70
2019-02-16T14:07:42.291Z,12.60
2019-02-16T14:10:12.232Z,12.60
2019-02-16T14:12:42.131Z,12.50
2019-02-16T14:15:12.047Z,12.60
2019-02-16T14:17:46.455Z,12.60
2019-02-16T14:20:14.899Z,12.70
2019-02-16T14:22:43.142Z,12.70
2019-02-16T14:25:13.034Z,12.70
2019-02-16T14:27:41.374Z,12.50
2019-02-16T14:30:11.706Z,12.60
2019-02-16T14:32:39.983Z,12.60
2019-02-16T14:35:08.543Z,12.60
2019-02-16T14:37:56.586Z,12.60
2019-02-16T14:40:26.642Z,12.60
2019-02-16T14:42:57.579Z,12.50
2019-02-16T14:45:25.840Z,12.50
2019-02-16T14:47:54.108Z,12.60
2019-02-16T14:50:22.363Z,12.60
2019-02-16T14:52:50.757Z,12.40
2019-02-16T14:55:19.275Z,12.40
2019-02-16T14:57:47.563Z,12.50
2019-02-16T15:00:15.893Z,12.40
2019-02-16T15:02:44.230Z,12.30
2019-02-16T15:05:12.580Z,12.40
2019-02-16T15:07:40.819Z,12.30
2019-02-16T15:10:11.296Z,12.40
2019-02-16T15:12:39.656Z,12.40
2019-02-16T15:15:12.161Z,12.30
2019-02-16T15:17:40.536Z,12.20
2019-02-16T15:20:11.802Z,12.10
2019-02-16T15:22:40.167Z,12.10
2019-02-16T15:25:10.855Z,12.10
2019-02-16T15:27:39.425Z,12.10
2019-02-16T15:30:14.484Z,12.00
2019-02-16T15:32:43.070Z,11.90
2019-02-16T15:35:11.642Z,12.00
2019-02-16T15:37:39.926Z,11.90
2019-02-16T15:40:09.922Z,11.70
2019-02-16T15:42:38.198Z,11.80
2019-02-16T15:45:09.604Z,11.70
2019-02-16T15:47:37.860Z,11.60
2019-02-16T15:50:09.081Z,11.50
2019-02-16T15:52:37.328Z,11.50
2019-02-16T15:55:07.702Z,11.40
2019-02-16T15:57:35.961Z,11.50
2019-02-16T16:00:07.566Z,11.40
2019-02-16T16:02:35.852Z,11.40
2019-02-16T16:05:04.111Z,11.30
2019-02-16T16:07:32.470Z,11.30
2019-02-16T16:10:17.639Z,11.20
2019-02-16T16:13:05.684Z,11.10
2019-02-16T16:15:41.761Z,10.90
2019-02-16T16:18:25.201Z,10.70
2019-02-16T16:20:55.153Z,10.40
2019-02-16T16:23:30.896Z,10.20
2019-02-16T16:26:03.665Z,10.00
2019-02-16T16:28:33.631Z,9.80
2019-02-16T16:31:06.317Z,9.60
2019-02-16T16:33:36.253Z,9.40
2019-02-16T16:36:06.151Z,9.20
2019-02-16T16:38:51.053Z,9.10
2019-02-16T16:41:37.331Z,8.90
2019-02-16T16:44:07.338Z,8.80
2019-02-16T16:46:53.731Z,8.60
2019-02-16T16:49:26.696Z,8.50
2019-02-16T16:51:56.654Z,8.30
2019-02-16T16:54:32.174Z,8.10
2019-02-16T16:57:09.694Z,8.00
2019-02-16T16:59:39.606Z,7.80
2019-02-16T17:02:12.396Z,7.70
2019-02-16T17:04:50.992Z,7.60
2019-02-16T17:07:27.793Z,7.50
2019-02-16T17:10:14.072Z,7.40
2019-02-16T17:13:00.640Z,7.30
2019-02-16T17:15:47.189Z,7.10
2019-02-16T17:18:26.230Z,6.90
2019-02-16T17:20:59.827Z,6.80
2019-02-16T17:23:35.631Z,6.70
2019-02-16T17:26:21.964Z,6.60
2019-02-16T17:28:51.928Z,6.60
2019-02-16T17:31:24.561Z,6.60
2019-02-16T17:34:09.497Z,6.60
2019-02-16T17:36:51.276Z,6.50
2019-02-16T17:39:39.262Z,6.40
2019-02-16T17:42:14.823Z,6.30
2019-02-16T17:47:25.699Z,6.20
2019-02-16T17:50:04.983Z,6.10
2019-02-16T17:52:43.969Z,6.00
2019-02-16T17:55:13.874Z,5.90
2019-02-16T17:57:48.009Z,5.70
2019-02-16T18:00:35.987Z,5.70
2019-02-16T18:03:05.908Z,5.60
2019-02-16T18:05:38.821Z,5.60
2019-02-16T18:08:08.728Z,5.70
2019-02-16T18:10:50.511Z,5.60
2019-02-16T18:13:20.380Z,5.60
2019-02-16T18:15:50.305Z,5.50
2019-02-16T18:18:23.010Z,5.40
2019-02-16T18:21:02.373Z,5.30
2019-02-16T18:23:35.261Z,5.20
2019-02-16T18:26:05.181Z,5.10
2019-02-16T18:28:57.187Z,5.30
2019-02-16T18:31:23.091Z,5.30
2019-02-16T18:34:09.204Z,5.30
2019-02-16T18:36:57.406Z,5.10
2019-02-16T18:39:37.402Z,5.00
2019-02-16T18:42:19.408Z,4.90
2019-02-16T18:44:59.473Z,5.00
2019-02-16T18:47:32.018Z,5.10
2019-02-16T18:50:10.934Z,4.90
2019-02-16T18:52:52.905Z,4.80
2019-02-16T18:55:22.825Z,4.80
2019-02-16T18:58:01.873Z,4.80
2019-02-16T19:00:33.554Z,4.90
2019-02-16T19:03:09.434Z,5.00
2019-02-16T19:05:42.266Z,5.10
2019-02-16T19:08:30.254Z,5.20
2019-02-16T19:11:02.798Z,5.30
2019-02-16T19:13:32.734Z,5.40
2019-02-16T19:16:02.672Z,5.50
2019-02-16T19:18:35.636Z,5.50
2019-02-16T19:21:06.384Z,5.50
2019-02-16T19:23:47.166Z,5.30
2019-02-16T19:26:22.940Z,5.30
2019-02-16T19:28:52.832Z,5.20
2019-02-16T19:31:31.713Z,5.20
2019-02-16T19:34:16.731Z,5.10
2019-02-16T19:36:50.324Z,5.10
2019-02-16T19:39:20.576Z,5.10
2019-02-16T19:41:50.525Z,5.20
2019-02-16T19:44:35.620Z,5.20
2019-02-16T19:47:17.542Z,5.20
2019-02-16T19:49:53.294Z,5.20
2019-02-16T19:52:39.512Z,5.10
2019-02-16T19:55:12.024Z,5.00
2019-02-16T19:57:41.999Z,4.90
2019-02-16T20:00:22.695Z,4.90
2019-02-16T20:02:55.628Z,4.80
2019-02-16T20:05:42.047Z,4.80
2019-02-16T20:08:12.062Z,4.70
2019-02-16T20:10:41.961Z,4.50
2019-02-16T20:13:17.736Z,4.40
2019-02-16T20:15:47.783Z,4.40
2019-02-16T20:18:17.738Z,4.30
2019-02-16T20:20:50.122Z,4.20
2019-02-16T20:23:25.977Z,4.20
2019-02-16T20:26:01.759Z,4.30
2019-02-16T20:28:37.577Z,4.30
2019-02-16T20:31:25.597Z,4.40
2019-02-16T20:33:55.553Z,4.30
2019-02-16T20:36:25.438Z,4.20
2019-02-16T20:39:04.537Z,4.30
2019-02-16T20:41:34.515Z,4.20
2019-02-16T20:44:20.678Z,4.30
2019-02-16T20:46:53.342Z,4.30
2019-02-16T20:49:26.115Z,4.20
2019-02-16T20:51:58.962Z,4.20
2019-02-16T20:54:37.938Z,4.10
2019-02-16T20:57:11.058Z,4.10
2019-02-16T20:59:41.047Z,4.00
2019-02-16T21:02:10.954Z,4.00
2019-02-16T21:04:57.205Z,4.00
2019-02-16T21:07:27.118Z,4.00
2019-02-16T21:10:06.059Z,3.90
2019-02-16T21:12:38.851Z,4.00
2019-02-16T21:15:12.069Z,3.90
2019-02-16T21:17:44.866Z,3.90
2019-02-16T21:20:14.849Z,3.80
2019-02-16T21:22:47.637Z,3.80
2019-02-16T21:25:17.677Z,3.80
2019-02-16T21:27:57.396Z,3.80
2019-02-16T21:30:23.006Z,3.70
2019-02-16T21:32:58.869Z,3.70
2019-02-16T21:35:44.783Z,3.80
2019-02-16T21:38:31.026Z,3.70
2019-02-16T21:41:06.940Z,3.70
2019-02-16T21:43:37.030Z,3.70
2019-02-16T21:46:29.354Z,3.60
2019-02-16T21:48:59.257Z,3.60
2019-02-16T21:51:34.975Z,3.50
2019-02-16T21:54:07.554Z,3.50
2019-02-16T21:56:37.523Z,3.60
2019-02-16T21:59:18.925Z,3.60
2019-02-16T22:01:48.264Z,3.60
2019-02-16T22:04:24.170Z,3.60
2019-02-16T22:06:59.839Z,3.60
2019-02-16T22:09:35.488Z,3.50
2019-02-16T22:12:05.415Z,3.50
2019-02-16T22:14:33.732Z,3.50
2019-02-16T22:17:02.051Z,3.50
2019-02-16T22:19:30.400Z,3.50
2019-02-16T22:21:58.702Z,3.50
2019-02-16T22:24:28.514Z,3.50
2019-02-16T22:26:56.843Z,3.50
2019-02-16T22:29:25.080Z,3.40
2019-02-16T22:31:53.357Z,3.50
2019-02-16T22:34:21.723Z,3.50
2019-02-16T22:36:50.107Z,3.40
2019-02-16T22:39:18.359Z,3.50
2019-02-16T22:41:46.687Z,3.40
2019-02-16T22:44:16.646Z,3.40
2019-02-16T22:46:44.961Z,3.40
2019-02-16T22:49:13.491Z,3.30
2019-02-16T22:51:41.753Z,3.30
2019-02-16T22:54:10.055Z,3.30
2019-02-16T22:56:38.315Z,3.30
2019-02-16T22:59:06.535Z,3.50
2019-02-16T23:01:34.822Z,3.50
2019-02-16T23:04:03.082Z,3.40
2019-02-16T23:06:31.346Z,3.40
2019-02-16T23:08:59.652Z,3.50
2019-02-16T23:11:28.006Z,3.40
2019-02-16T23:13:56.257Z,3.40
2019-02-16T23:16:24.566Z,3.40
2019-02-16T23:18:52.802Z,3.30
2019-02-16T23:21:21.072Z,3.30
2019-02-16T23:23:49.369Z,3.30
2019-02-16T23:26:17.624Z,3.20
2019-02-16T23:28:45.990Z,3.20
2019-02-16T23:31:14.330Z,3.20
2019-02-16T23:33:42.559Z,3.10
2019-02-16T23:36:10.936Z,3.30
2019-02-16T23:38:39.143Z,3.30
2019-02-16T23:41:07.413Z,3.20
2019-02-16T23:43:35.703Z,3.20
2019-02-16T23:46:04.333Z,3.10
2019-02-16T23:48:32.634Z,3.10
2019-02-16T23:51:00.859Z,3.20
2019-02-16T23:53:29.241Z,3.10
2019-02-16T23:55:57.619Z,3.20
2019-02-16T23:58:25.870Z,3.10
